sensor_id;sensor_type;location;lat;lon;timestamp;P1;durP1;ratioP1;P2;durP2;ratioP2
3953;SDS011;1991;48.682;9.030;2022-12-05T00:03:45;22.40;;;11.80;;
3953;SDS011;1991;48.682;9.030;2022-12-05T00:06:12;21.43;;;11.73;;
3953;SDS011;1991;48.682;9.030;2022-12-05T00:08:37;22.23;;;12.00;;
3953;SDS011;1991;48.682;9.030;2022-12-05T00:11:03;20.30;;;11.67;;
3953;SDS011;1991;48.682;9.030;2022-12-05T00:13:28;21.17;;;12.00;;
3953;SDS011;1991;48.682;9.030;2022-12-05T00:15:54;20.80;;;12.43;;
3953;SDS011;1991;48.682;9.030;2022-12-05T00:18:20;19.43;;;11.17;;
3953;SDS011;1991;48.682;9.030;2022-12-05T00:20:45;18.67;;;11.33;;
3953;SDS011;1991;48.682;9.030;2022-12-05T00:23:12;18.93;;;10.77;;
3953;SDS011;1991;48.682;9.030;2022-12-05T00:25:38;23.00;;;12.20;;
3953;SDS011;1991;48.682;9.030;2022-12-05T00:28:04;18.70;;;10.50;;
3953;SDS011;1991;48.682;9.030;2022-12-05T00:30:29;16.73;;;10.80;;
3953;SDS011;1991;48.682;9.030;2022-12-05T00:32:56;21.40;;;11.53;;
3953;SDS011;1991;48.682;9.030;2022-12-05T00:35:21;22.60;;;12.33;;
3953;SDS011;1991;48.682;9.030;2022-12-05T00:37:47;20.60;;;11.70;;
3953;SDS011;1991;48.682;9.030;2022-12-05T00:40:12;24.47;;;12.07;;
3953;SDS011;1991;48.682;9.030;2022-12-05T00:42:38;20.43;;;10.90;;
3953;SDS011;1991;48.682;9.030;2022-12-05T00:45:04;18.30;;;10.57;;
3953;SDS011;1991;48.682;9.030;2022-12-05T00:47:33;17.53;;;9.93;;
3953;SDS011;1991;48.682;9.030;2022-12-05T00:49:59;18.40;;;9.03;;
3953;SDS011;1991;48.682;9.030;2022-12-05T00:52:25;17.23;;;10.27;;
3953;SDS011;1991;48.682;9.030;2022-12-05T00:54:51;18.70;;;10.50;;
3953;SDS011;1991;48.682;9.030;2022-12-05T00:57:17;16.23;;;9.67;;
3953;SDS011;1991;48.682;9.030;2022-12-05T00:59:42;18.60;;;10.00;;
3953;SDS011;1991;48.682;9.030;2022-12-05T01:02:08;18.23;;;10.23;;
3953;SDS011;1991;48.682;9.030;2022-12-05T01:04:33;18.67;;;10.27;;
3953;SDS011;1991;48.682;9.030;2022-12-05T01:06:59;16.20;;;9.77;;
3953;SDS011;1991;48.682;9.030;2022-12-05T01:09:25;19.27;;;9.90;;
3953;SDS011;1991;48.682;9.030;2022-12-05T01:11:51;19.63;;;10.77;;
3953;SDS011;1991;48.682;9.030;2022-12-05T01:14:17;23.57;;;11.17;;
3953;SDS011;1991;48.682;9.030;2022-12-05T01:16:45;16.37;;;9.63;;
3953;SDS011;1991;48.682;9.030;2022-12-05T01:19:16;16.03;;;9.30;;
3953;SDS011;1991;48.682;9.030;2022-12-05T01:21:50;16.23;;;9.33;;
3953;SDS011;1991;48.682;9.030;2022-12-05T01:24:16;17.47;;;10.03;;
3953;SDS011;1991;48.682;9.030;2022-12-05T01:26:44;17.17;;;9.87;;
3953;SDS011;1991;48.682;9.030;2022-12-05T01:29:11;19.70;;;11.10;;
3953;SDS011;1991;48.682;9.030;2022-12-05T01:31:38;22.17;;;10.97;;
3953;SDS011;1991;48.682;9.030;2022-12-05T01:34:11;21.87;;;11.53;;
3953;SDS011;1991;48.682;9.030;2022-12-05T01:36:39;21.93;;;10.63;;
3953;SDS011;1991;48.682;9.030;2022-12-05T01:39:05;23.40;;;11.47;;
3953;SDS011;1991;48.682;9.030;2022-12-05T01:41:33;22.40;;;10.90;;
3953;SDS011;1991;48.682;9.030;2022-12-05T01:44:02;21.13;;;11.47;;
3953;SDS011;1991;48.682;9.030;2022-12-05T01:46:31;20.83;;;12.50;;
3953;SDS011;1991;48.682;9.030;2022-12-05T01:51:36;23.50;;;12.33;;
3953;SDS011;1991;48.682;9.030;2022-12-05T01:54:04;23.23;;;12.90;;
3953;SDS011;1991;48.682;9.030;2022-12-05T01:56:31;21.83;;;12.87;;
3953;SDS011;1991;48.682;9.030;2022-12-05T01:58:58;23.80;;;12.37;;
3953;SDS011;1991;48.682;9.030;2022-12-05T02:01:25;26.27;;;13.13;;
3953;SDS011;1991;48.682;9.030;2022-12-05T02:03:51;25.17;;;12.80;;
3953;SDS011;1991;48.682;9.030;2022-12-05T02:06:21;25.43;;;13.07;;
3953;SDS011;1991;48.682;9.030;2022-12-05T02:08:48;27.70;;;13.30;;
3953;SDS011;1991;48.682;9.030;2022-12-05T02:11:16;24.23;;;12.83;;
3953;SDS011;1991;48.682;9.030;2022-12-05T02:22:22;27.50;;;13.30;;
3953;SDS011;1991;48.682;9.030;2022-12-05T02:30:35;32.00;;;13.03;;
3953;SDS011;1991;48.682;9.030;2022-12-05T02:38:48;27.93;;;13.73;;
3953;SDS011;1991;48.682;9.030;2022-12-05T02:44:15;29.50;;;13.80;;
3953;SDS011;1991;48.682;9.030;2022-12-05T02:46:47;26.33;;;13.70;;
3953;SDS011;1991;48.682;9.030;2022-12-05T02:49:17;31.47;;;15.17;;
3953;SDS011;1991;48.682;9.030;2022-12-05T02:51:47;29.00;;;14.80;;
3953;SDS011;1991;48.682;9.030;2022-12-05T02:54:18;26.90;;;14.37;;
3953;SDS011;1991;48.682;9.030;2022-12-05T02:56:47;25.37;;;13.40;;
3953;SDS011;1991;48.682;9.030;2022-12-05T02:59:14;28.27;;;13.87;;
3953;SDS011;1991;48.682;9.030;2022-12-05T03:01:42;25.23;;;13.40;;
3953;SDS011;1991;48.682;9.030;2022-12-05T03:04:10;25.63;;;13.37;;
3953;SDS011;1991;48.682;9.030;2022-12-05T03:09:07;25.67;;;13.40;;
3953;SDS011;1991;48.682;9.030;2022-12-05T03:11:40;26.47;;;13.07;;
3953;SDS011;1991;48.682;9.030;2022-12-05T03:14:12;26.93;;;14.60;;
3953;SDS011;1991;48.682;9.030;2022-12-05T03:16:46;29.27;;;13.03;;
3953;SDS011;1991;48.682;9.030;2022-12-05T03:19:16;25.97;;;13.00;;
3953;SDS011;1991;48.682;9.030;2022-12-05T03:21:54;24.57;;;12.53;;
3953;SDS011;1991;48.682;9.030;2022-12-05T03:24:24;23.50;;;13.17;;
3953;SDS011;1991;48.682;9.030;2022-12-05T03:32:44;23.10;;;12.27;;
3953;SDS011;1991;48.682;9.030;2022-12-05T03:35:16;27.37;;;13.70;;
3953;SDS011;1991;48.682;9.030;2022-12-05T03:37:57;20.57;;;11.67;;
3953;SDS011;1991;48.682;9.030;2022-12-05T03:40:52;19.37;;;11.10;;
3953;SDS011;1991;48.682;9.030;2022-12-05T03:46:15;25.07;;;12.27;;
3953;SDS011;1991;48.682;9.030;2022-12-05T03:51:19;22.70;;;11.87;;
3953;SDS011;1991;48.682;9.030;2022-12-05T03:53:53;23.80;;;13.23;;
3953;SDS011;1991;48.682;9.030;2022-12-05T03:56:30;20.07;;;11.43;;
3953;SDS011;1991;48.682;9.030;2022-12-05T03:59:02;20.27;;;11.80;;
3953;SDS011;1991;48.682;9.030;2022-12-05T04:01:34;20.20;;;11.87;;
3953;SDS011;1991;48.682;9.030;2022-12-05T04:04:03;19.73;;;11.13;;
3953;SDS011;1991;48.682;9.030;2022-12-05T04:06:38;22.37;;;11.57;;
3953;SDS011;1991;48.682;9.030;2022-12-05T04:09:07;22.33;;;11.00;;
3953;SDS011;1991;48.682;9.030;2022-12-05T04:11:39;19.20;;;10.77;;
3953;SDS011;1991;48.682;9.030;2022-12-05T04:16:39;18.67;;;10.67;;
3953;SDS011;1991;48.682;9.030;2022-12-05T04:22:19;19.80;;;10.70;;
3953;SDS011;1991;48.682;9.030;2022-12-05T04:24:46;15.13;;;9.73;;
3953;SDS011;1991;48.682;9.030;2022-12-05T04:30:19;18.20;;;10.27;;
3953;SDS011;1991;48.682;9.030;2022-12-05T04:33:01;15.80;;;10.13;;
3953;SDS011;1991;48.682;9.030;2022-12-05T04:35:37;15.13;;;9.27;;
3953;SDS011;1991;48.682;9.030;2022-12-05T04:38:50;16.33;;;9.77;;
3953;SDS011;1991;48.682;9.030;2022-12-05T04:41:18;18.17;;;10.40;;
3953;SDS011;1991;48.682;9.030;2022-12-05T04:43:48;17.27;;;9.57;;
3953;SDS011;1991;48.682;9.030;2022-12-05T04:46:16;15.00;;;9.60;;
3953;SDS011;1991;48.682;9.030;2022-12-05T04:48:45;17.07;;;10.17;;
3953;SDS011;1991;48.682;9.030;2022-12-05T04:51:16;18.80;;;10.87;;
3953;SDS011;1991;48.682;9.030;2022-12-05T04:53:45;16.87;;;10.23;;
3953;SDS011;1991;48.682;9.030;2022-12-05T04:56:15;17.57;;;10.23;;
3953;SDS011;1991;48.682;9.030;2022-12-05T04:58:44;16.80;;;10.53;;
3953;SDS011;1991;48.682;9.030;2022-12-05T05:01:15;17.97;;;10.63;;
3953;SDS011;1991;48.682;9.030;2022-12-05T05:06:26;18.27;;;9.90;;
3953;SDS011;1991;48.682;9.030;2022-12-05T05:08:53;15.07;;;9.33;;
3953;SDS011;1991;48.682;9.030;2022-12-05T05:13:50;15.50;;;9.23;;
3953;SDS011;1991;48.682;9.030;2022-12-05T05:16:23;18.20;;;10.30;;
3953;SDS011;1991;48.682;9.030;2022-12-05T05:18:50;15.63;;;9.80;;
3953;SDS011;1991;48.682;9.030;2022-12-05T05:21:25;15.37;;;9.47;;
3953;SDS011;1991;48.682;9.030;2022-12-05T05:23:52;13.60;;;8.90;;
3953;SDS011;1991;48.682;9.030;2022-12-05T05:26:19;14.37;;;9.33;;
3953;SDS011;1991;48.682;9.030;2022-12-05T05:28:46;18.67;;;9.57;;
3953;SDS011;1991;48.682;9.030;2022-12-05T05:31:12;14.80;;;10.53;;
3953;SDS011;1991;48.682;9.030;2022-12-05T05:33:38;14.17;;;10.13;;
3953;SDS011;1991;48.682;9.030;2022-12-05T05:38:39;15.27;;;9.53;;
3953;SDS011;1991;48.682;9.030;2022-12-05T05:41:11;15.33;;;9.73;;
3953;SDS011;1991;48.682;9.030;2022-12-05T05:43:39;14.37;;;9.97;;
3953;SDS011;1991;48.682;9.030;2022-12-05T05:46:05;14.70;;;9.03;;
3953;SDS011;1991;48.682;9.030;2022-12-05T05:48:30;13.47;;;8.80;;
3953;SDS011;1991;48.682;9.030;2022-12-05T05:50:59;11.67;;;8.80;;
3953;SDS011;1991;48.682;9.030;2022-12-05T05:53:26;12.27;;;8.40;;
3953;SDS011;1991;48.682;9.030;2022-12-05T05:55:52;12.33;;;7.67;;
3953;SDS011;1991;48.682;9.030;2022-12-05T05:58:17;10.87;;;7.83;;
3953;SDS011;1991;48.682;9.030;2022-12-05T06:00:43;11.37;;;7.70;;
3953;SDS011;1991;48.682;9.030;2022-12-05T06:03:08;9.63;;;7.73;;
3953;SDS011;1991;48.682;9.030;2022-12-05T06:05:34;11.77;;;7.57;;
3953;SDS011;1991;48.682;9.030;2022-12-05T06:08:00;10.43;;;7.20;;
3953;SDS011;1991;48.682;9.030;2022-12-05T06:10:25;11.00;;;7.70;;
3953;SDS011;1991;48.682;9.030;2022-12-05T06:12:51;11.60;;;8.30;;
3953;SDS011;1991;48.682;9.030;2022-12-05T06:15:16;10.43;;;7.97;;
3953;SDS011;1991;48.682;9.030;2022-12-05T06:17:42;11.30;;;7.83;;
3953;SDS011;1991;48.682;9.030;2022-12-05T06:20:07;12.13;;;8.43;;
3953;SDS011;1991;48.682;9.030;2022-12-05T06:22:33;11.93;;;8.27;;
3953;SDS011;1991;48.682;9.030;2022-12-05T06:24:59;12.57;;;8.20;;
3953;SDS011;1991;48.682;9.030;2022-12-05T06:27:25;11.50;;;7.80;;
3953;SDS011;1991;48.682;9.030;2022-12-05T06:29:52;12.47;;;7.97;;
3953;SDS011;1991;48.682;9.030;2022-12-05T06:32:18;14.07;;;9.17;;
3953;SDS011;1991;48.682;9.030;2022-12-05T06:34:44;14.00;;;8.57;;
3953;SDS011;1991;48.682;9.030;2022-12-05T06:37:09;13.30;;;8.83;;
3953;SDS011;1991;48.682;9.030;2022-12-05T06:39:35;11.37;;;8.10;;
3953;SDS011;1991;48.682;9.030;2022-12-05T06:42:00;14.60;;;8.83;;
3953;SDS011;1991;48.682;9.030;2022-12-05T06:44:26;12.57;;;7.87;;
3953;SDS011;1991;48.682;9.030;2022-12-05T06:46:53;12.07;;;8.87;;
3953;SDS011;1991;48.682;9.030;2022-12-05T06:49:19;13.10;;;8.90;;
3953;SDS011;1991;48.682;9.030;2022-12-05T06:51:45;12.00;;;8.60;;
3953;SDS011;1991;48.682;9.030;2022-12-05T06:54:11;11.20;;;7.67;;
3953;SDS011;1991;48.682;9.030;2022-12-05T06:56:38;11.00;;;8.10;;
3953;SDS011;1991;48.682;9.030;2022-12-05T06:59:03;12.20;;;8.37;;
3953;SDS011;1991;48.682;9.030;2022-12-05T07:01:29;10.57;;;7.83;;
3953;SDS011;1991;48.682;9.030;2022-12-05T07:04:15;10.87;;;7.53;;
3953;SDS011;1991;48.682;9.030;2022-12-05T07:06:44;12.07;;;8.00;;
3953;SDS011;1991;48.682;9.030;2022-12-05T07:09:10;12.53;;;8.20;;
3953;SDS011;1991;48.682;9.030;2022-12-05T07:11:36;11.40;;;8.00;;
3953;SDS011;1991;48.682;9.030;2022-12-05T07:14:02;12.40;;;8.47;;
3953;SDS011;1991;48.682;9.030;2022-12-05T07:16:29;19.83;;;14.60;;
3953;SDS011;1991;48.682;9.030;2022-12-05T07:18:55;13.80;;;10.17;;
3953;SDS011;1991;48.682;9.030;2022-12-05T07:21:21;12.23;;;9.00;;
3953;SDS011;1991;48.682;9.030;2022-12-05T07:23:47;11.17;;;8.33;;
3953;SDS011;1991;48.682;9.030;2022-12-05T07:26:15;10.87;;;8.37;;
3953;SDS011;1991;48.682;9.030;2022-12-05T07:28:42;11.07;;;7.17;;
3953;SDS011;1991;48.682;9.030;2022-12-05T07:31:09;9.93;;;6.90;;
3953;SDS011;1991;48.682;9.030;2022-12-05T07:33:36;12.00;;;7.60;;
3953;SDS011;1991;48.682;9.030;2022-12-05T07:36:05;10.17;;;7.00;;
3953;SDS011;1991;48.682;9.030;2022-12-05T07:38:35;13.83;;;7.70;;
3953;SDS011;1991;48.682;9.030;2022-12-05T07:41:13;9.20;;;7.23;;
3953;SDS011;1991;48.682;9.030;2022-12-05T07:43:44;9.73;;;6.93;;
3953;SDS011;1991;48.682;9.030;2022-12-05T07:46:10;8.63;;;6.50;;
3953;SDS011;1991;48.682;9.030;2022-12-05T07:48:35;8.67;;;6.97;;
3953;SDS011;1991;48.682;9.030;2022-12-05T07:51:02;10.57;;;7.03;;
3953;SDS011;1991;48.682;9.030;2022-12-05T07:53:29;10.80;;;6.60;;
3953;SDS011;1991;48.682;9.030;2022-12-05T07:56:00;9.50;;;6.73;;
3953;SDS011;1991;48.682;9.030;2022-12-05T07:58:29;8.33;;;6.10;;
3953;SDS011;1991;48.682;9.030;2022-12-05T08:00:56;7.70;;;6.07;;
3953;SDS011;1991;48.682;9.030;2022-12-05T08:03:29;7.80;;;5.80;;
3953;SDS011;1991;48.682;9.030;2022-12-05T08:05:54;8.23;;;6.27;;
3953;SDS011;1991;48.682;9.030;2022-12-05T08:08:20;7.57;;;5.83;;
3953;SDS011;1991;48.682;9.030;2022-12-05T08:10:45;7.23;;;5.73;;
3953;SDS011;1991;48.682;9.030;2022-12-05T08:13:11;7.40;;;6.20;;
3953;SDS011;1991;48.682;9.030;2022-12-05T08:15:37;7.83;;;6.17;;
3953;SDS011;1991;48.682;9.030;2022-12-05T08:18:02;8.10;;;6.40;;
3953;SDS011;1991;48.682;9.030;2022-12-05T08:20:28;8.10;;;5.80;;
3953;SDS011;1991;48.682;9.030;2022-12-05T08:22:54;8.43;;;6.30;;
3953;SDS011;1991;48.682;9.030;2022-12-05T08:25:20;8.33;;;6.43;;
3953;SDS011;1991;48.682;9.030;2022-12-05T08:27:45;8.13;;;5.93;;
3953;SDS011;1991;48.682;9.030;2022-12-05T08:30:11;8.67;;;6.57;;
3953;SDS011;1991;48.682;9.030;2022-12-05T08:32:36;8.50;;;6.07;;
3953;SDS011;1991;48.682;9.030;2022-12-05T08:35:02;10.57;;;6.50;;
3953;SDS011;1991;48.682;9.030;2022-12-05T08:37:28;7.73;;;6.10;;
3953;SDS011;1991;48.682;9.030;2022-12-05T08:39:53;6.87;;;5.77;;
3953;SDS011;1991;48.682;9.030;2022-12-05T08:42:19;8.07;;;6.20;;
3953;SDS011;1991;48.682;9.030;2022-12-05T08:44:44;8.77;;;6.20;;
3953;SDS011;1991;48.682;9.030;2022-12-05T08:47:10;6.93;;;5.80;;
3953;SDS011;1991;48.682;9.030;2022-12-05T08:49:36;8.87;;;6.60;;
3953;SDS011;1991;48.682;9.030;2022-12-05T08:52:01;8.73;;;6.50;;
3953;SDS011;1991;48.682;9.030;2022-12-05T08:54:27;7.03;;;6.07;;
3953;SDS011;1991;48.682;9.030;2022-12-05T08:56:53;7.80;;;5.77;;
3953;SDS011;1991;48.682;9.030;2022-12-05T08:59:18;6.70;;;5.47;;
3953;SDS011;1991;48.682;9.030;2022-12-05T09:01:44;7.87;;;5.50;;
3953;SDS011;1991;48.682;9.030;2022-12-05T09:04:09;11.33;;;5.40;;
3953;SDS011;1991;48.682;9.030;2022-12-05T09:06:36;6.30;;;4.97;;
3953;SDS011;1991;48.682;9.030;2022-12-05T09:09:04;7.43;;;5.07;;
3953;SDS011;1991;48.682;9.030;2022-12-05T09:11:32;6.37;;;5.13;;
3953;SDS011;1991;48.682;9.030;2022-12-05T09:14:01;7.87;;;5.30;;
3953;SDS011;1991;48.682;9.030;2022-12-05T09:16:31;5.90;;;5.00;;
3953;SDS011;1991;48.682;9.030;2022-12-05T09:18:58;6.30;;;5.10;;
3953;SDS011;1991;48.682;9.030;2022-12-05T09:21:24;7.27;;;5.50;;
3953;SDS011;1991;48.682;9.030;2022-12-05T09:23:51;7.23;;;5.00;;
3953;SDS011;1991;48.682;9.030;2022-12-05T09:26:19;7.43;;;5.87;;
3953;SDS011;1991;48.682;9.030;2022-12-05T09:28:46;6.63;;;5.30;;
3953;SDS011;1991;48.682;9.030;2022-12-05T09:31:14;7.60;;;5.43;;
3953;SDS011;1991;48.682;9.030;2022-12-05T09:33:41;7.63;;;5.83;;
3953;SDS011;1991;48.682;9.030;2022-12-05T09:36:13;6.00;;;4.87;;
3953;SDS011;1991;48.682;9.030;2022-12-05T09:38:43;6.60;;;5.27;;
3953;SDS011;1991;48.682;9.030;2022-12-05T09:44:29;7.80;;;5.73;;
3953;SDS011;1991;48.682;9.030;2022-12-05T09:50:02;6.50;;;5.00;;
3953;SDS011;1991;48.682;9.030;2022-12-05T09:52:37;5.13;;;4.57;;
3953;SDS011;1991;48.682;9.030;2022-12-05T09:55:16;6.80;;;5.17;;
3953;SDS011;1991;48.682;9.030;2022-12-05T09:57:48;6.67;;;5.30;;
3953;SDS011;1991;48.682;9.030;2022-12-05T10:00:18;6.10;;;4.63;;
3953;SDS011;1991;48.682;9.030;2022-12-05T10:05:47;6.83;;;4.30;;
3953;SDS011;1991;48.682;9.030;2022-12-05T10:11:46;7.63;;;5.10;;
3953;SDS011;1991;48.682;9.030;2022-12-05T10:14:24;5.30;;;4.50;;
3953;SDS011;1991;48.682;9.030;2022-12-05T10:17:15;6.67;;;5.27;;
3953;SDS011;1991;48.682;9.030;2022-12-05T10:19:49;6.07;;;4.70;;
3953;SDS011;1991;48.682;9.030;2022-12-05T10:22:18;7.63;;;4.70;;
3953;SDS011;1991;48.682;9.030;2022-12-05T10:24:50;6.87;;;5.00;;
3953;SDS011;1991;48.682;9.030;2022-12-05T10:27:26;4.87;;;4.00;;
3953;SDS011;1991;48.682;9.030;2022-12-05T10:30:04;5.53;;;4.13;;
3953;SDS011;1991;48.682;9.030;2022-12-05T10:32:39;4.97;;;3.90;;
3953;SDS011;1991;48.682;9.030;2022-12-05T10:35:25;7.10;;;4.20;;
3953;SDS011;1991;48.682;9.030;2022-12-05T10:38:05;3.43;;;3.13;;
3953;SDS011;1991;48.682;9.030;2022-12-05T10:40:38;4.07;;;3.20;;
3953;SDS011;1991;48.682;9.030;2022-12-05T10:43:06;3.83;;;3.30;;
3953;SDS011;1991;48.682;9.030;2022-12-05T10:45:35;3.80;;;2.80;;
3953;SDS011;1991;48.682;9.030;2022-12-05T10:48:07;4.87;;;3.13;;
3953;SDS011;1991;48.682;9.030;2022-12-05T10:50:38;4.07;;;3.10;;
3953;SDS011;1991;48.682;9.030;2022-12-05T10:53:06;4.73;;;3.13;;
3953;SDS011;1991;48.682;9.030;2022-12-05T10:55:39;5.67;;;3.27;;
3953;SDS011;1991;48.682;9.030;2022-12-05T11:00:40;3.17;;;2.77;;
3953;SDS011;1991;48.682;9.030;2022-12-05T11:06:22;3.33;;;2.83;;
3953;SDS011;1991;48.682;9.030;2022-12-05T11:08:52;5.07;;;3.00;;
3953;SDS011;1991;48.682;9.030;2022-12-05T11:11:23;3.50;;;2.87;;
3953;SDS011;1991;48.682;9.030;2022-12-05T11:13:55;3.20;;;2.83;;
3953;SDS011;1991;48.682;9.030;2022-12-05T11:16:24;3.93;;;2.90;;
3953;SDS011;1991;48.682;9.030;2022-12-05T11:18:55;5.20;;;2.50;;
3953;SDS011;1991;48.682;9.030;2022-12-05T11:21:20;3.33;;;2.50;;
3953;SDS011;1991;48.682;9.030;2022-12-05T11:23:47;4.67;;;2.60;;
3953;SDS011;1991;48.682;9.030;2022-12-05T11:26:32;3.17;;;2.60;;
3953;SDS011;1991;48.682;9.030;2022-12-05T11:28:59;2.50;;;2.30;;
3953;SDS011;1991;48.682;9.030;2022-12-05T11:31:27;4.17;;;2.67;;
3953;SDS011;1991;48.682;9.030;2022-12-05T11:36:47;1.83;;;1.67;;
3953;SDS011;1991;48.682;9.030;2022-12-05T11:39:16;3.33;;;2.30;;
3953;SDS011;1991;48.682;9.030;2022-12-05T11:44:37;2.77;;;2.27;;
3953;SDS011;1991;48.682;9.030;2022-12-05T11:56:46;4.03;;;2.70;;
3953;SDS011;1991;48.682;9.030;2022-12-05T12:02:12;3.80;;;2.53;;
3953;SDS011;1991;48.682;9.030;2022-12-05T12:04:46;2.07;;;1.87;;
3953;SDS011;1991;48.682;9.030;2022-12-05T12:12:59;3.03;;;2.30;;
3953;SDS011;1991;48.682;9.030;2022-12-05T12:16:09;4.63;;;2.33;;
3953;SDS011;1991;48.682;9.030;2022-12-05T12:30:20;9.80;;;3.50;;
3953;SDS011;1991;48.682;9.030;2022-12-05T12:46:43;5.30;;;3.03;;
3953;SDS011;1991;48.682;9.030;2022-12-05T12:52:12;2.83;;;2.37;;
3953;SDS011;1991;48.682;9.030;2022-12-05T12:57:35;4.07;;;2.97;;
3953;SDS011;1991;48.682;9.030;2022-12-05T13:03:40;3.57;;;2.67;;
3953;SDS011;1991;48.682;9.030;2022-12-05T13:06:27;3.27;;;2.60;;
3953;SDS011;1991;48.682;9.030;2022-12-05T13:09:03;3.77;;;2.87;;
3953;SDS011;1991;48.682;9.030;2022-12-05T13:11:36;4.00;;;2.93;;
3953;SDS011;1991;48.682;9.030;2022-12-05T13:14:07;2.80;;;2.50;;
3953;SDS011;1991;48.682;9.030;2022-12-05T13:16:42;4.00;;;2.30;;
3953;SDS011;1991;48.682;9.030;2022-12-05T13:19:30;3.60;;;3.27;;
3953;SDS011;1991;48.682;9.030;2022-12-05T13:22:05;4.33;;;2.50;;
3953;SDS011;1991;48.682;9.030;2022-12-05T13:24:32;4.50;;;3.10;;
3953;SDS011;1991;48.682;9.030;2022-12-05T13:26:58;5.07;;;2.87;;
3953;SDS011;1991;48.682;9.030;2022-12-05T13:29:36;3.27;;;2.63;;
3953;SDS011;1991;48.682;9.030;2022-12-05T13:32:05;2.97;;;2.47;;
3953;SDS011;1991;48.682;9.030;2022-12-05T13:34:47;4.57;;;2.40;;
3953;SDS011;1991;48.682;9.030;2022-12-05T13:40:04;2.90;;;2.30;;
3953;SDS011;1991;48.682;9.030;2022-12-05T13:43:01;3.63;;;2.50;;
3953;SDS011;1991;48.682;9.030;2022-12-05T13:45:28;3.87;;;2.50;;
3953;SDS011;1991;48.682;9.030;2022-12-05T13:53:32;4.50;;;2.40;;
3953;SDS011;1991;48.682;9.030;2022-12-05T13:56:05;2.57;;;2.33;;
3953;SDS011;1991;48.682;9.030;2022-12-05T13:58:50;2.43;;;2.10;;
3953;SDS011;1991;48.682;9.030;2022-12-05T14:04:00;3.20;;;2.43;;
3953;SDS011;1991;48.682;9.030;2022-12-05T14:08:59;3.70;;;2.00;;
3953;SDS011;1991;48.682;9.030;2022-12-05T14:11:26;2.17;;;1.63;;
3953;SDS011;1991;48.682;9.030;2022-12-05T14:13:52;3.37;;;1.87;;
3953;SDS011;1991;48.682;9.030;2022-12-05T14:18:54;4.37;;;2.00;;
3953;SDS011;1991;48.682;9.030;2022-12-05T14:24:29;2.20;;;1.77;;
3953;SDS011;1991;48.682;9.030;2022-12-05T14:30:14;2.47;;;1.40;;
3953;SDS011;1991;48.682;9.030;2022-12-05T14:32:45;1.90;;;1.50;;
3953;SDS011;1991;48.682;9.030;2022-12-05T14:40:32;1.97;;;1.53;;
3953;SDS011;1991;48.682;9.030;2022-12-05T14:43:03;2.30;;;1.50;;
3953;SDS011;1991;48.682;9.030;2022-12-05T14:45:38;1.70;;;1.30;;
3953;SDS011;1991;48.682;9.030;2022-12-05T14:55:45;1.83;;;1.40;;
3953;SDS011;1991;48.682;9.030;2022-12-05T14:58:17;1.50;;;1.40;;
3953;SDS011;1991;48.682;9.030;2022-12-05T15:01:05;1.90;;;1.60;;
3953;SDS011;1991;48.682;9.030;2022-12-05T15:03:38;1.67;;;1.50;;
3953;SDS011;1991;48.682;9.030;2022-12-05T15:06:09;1.87;;;1.50;;
3953;SDS011;1991;48.682;9.030;2022-12-05T15:08:42;1.57;;;1.17;;
3953;SDS011;1991;48.682;9.030;2022-12-05T15:11:13;3.43;;;2.20;;
3953;SDS011;1991;48.682;9.030;2022-12-05T15:13:55;1.60;;;1.40;;
3953;SDS011;1991;48.682;9.030;2022-12-05T15:16:41;1.60;;;1.50;;
3953;SDS011;1991;48.682;9.030;2022-12-05T15:19:13;4.60;;;3.50;;
3953;SDS011;1991;48.682;9.030;2022-12-05T15:22:02;2.90;;;1.80;;
3953;SDS011;1991;48.682;9.030;2022-12-05T15:24:35;3.30;;;1.90;;
3953;SDS011;1991;48.682;9.030;2022-12-05T15:27:02;3.00;;;2.33;;
3953;SDS011;1991;48.682;9.030;2022-12-05T15:29:30;3.47;;;2.00;;
3953;SDS011;1991;48.682;9.030;2022-12-05T15:37:48;4.60;;;3.13;;
3953;SDS011;1991;48.682;9.030;2022-12-05T15:40:18;3.50;;;2.47;;
3953;SDS011;1991;48.682;9.030;2022-12-05T15:42:50;5.33;;;2.40;;
3953;SDS011;1991;48.682;9.030;2022-12-05T15:45:19;4.90;;;2.90;;
3953;SDS011;1991;48.682;9.030;2022-12-05T15:47:50;4.37;;;2.97;;
3953;SDS011;1991;48.682;9.030;2022-12-05T15:50:31;4.57;;;2.87;;
3953;SDS011;1991;48.682;9.030;2022-12-05T15:53:12;3.70;;;2.30;;
3953;SDS011;1991;48.682;9.030;2022-12-05T15:58:47;2.03;;;1.80;;
3953;SDS011;1991;48.682;9.030;2022-12-05T16:01:21;2.47;;;1.83;;
3953;SDS011;1991;48.682;9.030;2022-12-05T16:06:42;6.00;;;2.77;;
3953;SDS011;1991;48.682;9.030;2022-12-05T16:09:17;3.27;;;2.70;;
3953;SDS011;1991;48.682;9.030;2022-12-05T16:11:53;2.50;;;2.10;;
3953;SDS011;1991;48.682;9.030;2022-12-05T16:14:31;3.50;;;1.97;;
3953;SDS011;1991;48.682;9.030;2022-12-05T16:17:03;4.80;;;2.20;;
3953;SDS011;1991;48.682;9.030;2022-12-05T16:19:30;4.47;;;2.20;;
3953;SDS011;1991;48.682;9.030;2022-12-05T16:22:06;4.17;;;2.00;;
3953;SDS011;1991;48.682;9.030;2022-12-05T16:27:14;2.77;;;2.00;;
3953;SDS011;1991;48.682;9.030;2022-12-05T16:29:41;5.50;;;3.20;;
3953;SDS011;1991;48.682;9.030;2022-12-05T16:32:16;4.53;;;3.40;;
3953;SDS011;1991;48.682;9.030;2022-12-05T16:34:45;3.20;;;2.70;;
3953;SDS011;1991;48.682;9.030;2022-12-05T16:37:21;4.53;;;3.50;;
3953;SDS011;1991;48.682;9.030;2022-12-05T16:39:49;5.83;;;3.43;;
3953;SDS011;1991;48.682;9.030;2022-12-05T16:42:25;3.20;;;2.80;;
3953;SDS011;1991;48.682;9.030;2022-12-05T16:44:53;3.37;;;2.67;;
3953;SDS011;1991;48.682;9.030;2022-12-05T16:50:27;8.67;;;3.20;;
3953;SDS011;1991;48.682;9.030;2022-12-05T16:52:59;5.67;;;3.50;;
3953;SDS011;1991;48.682;9.030;2022-12-05T16:55:39;6.03;;;3.50;;
3953;SDS011;1991;48.682;9.030;2022-12-05T16:58:10;8.27;;;3.43;;
3953;SDS011;1991;48.682;9.030;2022-12-05T17:00:44;4.97;;;3.27;;
3953;SDS011;1991;48.682;9.030;2022-12-05T17:03:11;4.30;;;3.07;;
3953;SDS011;1991;48.682;9.030;2022-12-05T17:05:37;4.03;;;3.13;;
3953;SDS011;1991;48.682;9.030;2022-12-05T17:08:03;4.90;;;3.33;;
3953;SDS011;1991;48.682;9.030;2022-12-05T17:10:28;5.87;;;4.00;;
3953;SDS011;1991;48.682;9.030;2022-12-05T17:12:54;7.57;;;5.13;;
3953;SDS011;1991;48.682;9.030;2022-12-05T17:15:19;8.47;;;5.03;;
3953;SDS011;1991;48.682;9.030;2022-12-05T17:17:45;6.60;;;5.20;;
3953;SDS011;1991;48.682;9.030;2022-12-05T17:20:11;4.77;;;4.07;;
3953;SDS011;1991;48.682;9.030;2022-12-05T17:22:40;4.60;;;3.73;;
3953;SDS011;1991;48.682;9.030;2022-12-05T17:25:39;5.23;;;3.83;;
3953;SDS011;1991;48.682;9.030;2022-12-05T17:28:00;6.73;;;4.37;;
3953;SDS011;1991;48.682;9.030;2022-12-05T17:30:26;4.40;;;3.80;;
3953;SDS011;1991;48.682;9.030;2022-12-05T17:32:52;4.20;;;3.80;;
3953;SDS011;1991;48.682;9.030;2022-12-05T17:35:18;5.07;;;3.40;;
3953;SDS011;1991;48.682;9.030;2022-12-05T17:37:45;5.60;;;3.77;;
3953;SDS011;1991;48.682;9.030;2022-12-05T17:40:12;4.63;;;3.10;;
3953;SDS011;1991;48.682;9.030;2022-12-05T17:42:38;4.57;;;3.60;;
3953;SDS011;1991;48.682;9.030;2022-12-05T17:45:04;4.47;;;3.50;;
3953;SDS011;1991;48.682;9.030;2022-12-05T17:47:32;7.63;;;3.83;;
3953;SDS011;1991;48.682;9.030;2022-12-05T17:49:59;7.63;;;3.90;;
3953;SDS011;1991;48.682;9.030;2022-12-05T17:52:26;4.77;;;3.77;;
3953;SDS011;1991;48.682;9.030;2022-12-05T17:54:52;4.90;;;3.47;;
3953;SDS011;1991;48.682;9.030;2022-12-05T17:57:18;4.67;;;4.10;;
3953;SDS011;1991;48.682;9.030;2022-12-05T17:59:44;4.30;;;3.70;;
3953;SDS011;1991;48.682;9.030;2022-12-05T18:02:10;5.57;;;4.03;;
3953;SDS011;1991;48.682;9.030;2022-12-05T18:04:36;8.47;;;4.17;;
3953;SDS011;1991;48.682;9.030;2022-12-05T18:07:02;6.50;;;4.73;;
3953;SDS011;1991;48.682;9.030;2022-12-05T18:09:27;5.87;;;4.47;;
3953;SDS011;1991;48.682;9.030;2022-12-05T18:11:53;7.20;;;4.90;;
3953;SDS011;1991;48.682;9.030;2022-12-05T18:14:20;7.43;;;4.30;;
3953;SDS011;1991;48.682;9.030;2022-12-05T18:16:46;6.37;;;4.50;;
3953;SDS011;1991;48.682;9.030;2022-12-05T18:19:12;6.20;;;4.40;;
3953;SDS011;1991;48.682;9.030;2022-12-05T18:21:38;8.77;;;4.80;;
3953;SDS011;1991;48.682;9.030;2022-12-05T18:24:04;6.30;;;4.83;;
3953;SDS011;1991;48.682;9.030;2022-12-05T18:26:29;7.13;;;5.13;;
3953;SDS011;1991;48.682;9.030;2022-12-05T18:28:55;7.53;;;5.27;;